sensor_id;sensor_type;location;lat;lon;timestamp;pressure;altitude;pressure_sealevel;temperature;humidity
48352;BME280;34163;49.314;6.752;2024-03-23T00:51:40;98897.06;;;7.69;100.00
48352;BME280;34163;49.314;6.752;2024-03-23T00:54:05;98891.13;;;7.84;100.00
48352;BME280;34163;49.314;6.752;2024-03-23T00:56:33;98900.00;;;7.81;100.00
48352;BME280;34163;49.314;6.752;2024-03-23T00:59:19;98900.00;;;7.81;100.00
48352;BME280;34163;49.314;6.752;2024-03-23T01:01:57;98903.19;;;7.90;100.00
48352;BME280;34163;49.314;6.752;2024-03-23T01:04:25;98907.63;;;7.69;100.00
48352;BME280;34163;49.314;6.752;2024-03-23T06:18:54;99163.94;;;8.61;100.00
48352;BME280;34163;49.314;6.752;2024-03-23T06:21:22;99163.16;;;8.59;100.00
48352;BME280;34163;49.314;6.752;2024-03-23T06:23:51;99168.38;;;8.60;100.00
48352;BME280;34163;49.314;6.752;2024-03-23T06:26:27;99172.91;;;8.57;100.00
48352;BME280;34163;49.314;6.752;2024-03-23T06:28:57;99181.69;;;8.57;100.00
48352;BME280;34163;49.314;6.752;2024-03-23T06:31:24;99182.41;;;8.61;100.00
48352;BME280;34163;49.314;6.752;2024-03-23T06:34:00;99189.56;;;8.59;100.00
48352;BME280;34163;49.314;6.752;2024-03-23T06:36:46;99191.94;;;8.65;100.00
48352;BME280;34163;49.314;6.752;2024-03-23T06:39:11;99192.91;;;8.62;100.00
48352;BME280;34163;49.314;6.752;2024-03-23T06:41:40;99197.47;;;8.59;100.00
48352;BME280;34163;49.314;6.752;2024-03-23T06:44:05;99194.72;;;8.62;100.00
48352;BME280;34163;49.314;6.752;2024-03-23T06:46:33;99204.47;;;8.60;100.00
48352;BME280;34163;49.314;6.752;2024-03-23T06:49:03;99206.97;;;8.63;100.00
48352;BME280;34163;49.314;6.752;2024-03-23T06:51:38;99212.13;;;8.66;100.00
48352;BME280;34163;49.314;6.752;2024-03-23T06:54:06;99211.19;;;8.67;100.00
48352;BME280;34163;49.314;6.752;2024-03-23T06:56:52;99207.63;;;8.68;100.00
48352;BME280;34163;49.314;6.752;2024-03-23T06:59:17;99215.75;;;8.63;100.00
48352;BME280;34163;49.314;6.752;2024-03-23T07:01:52;99223.47;;;8.68;100.00
48352;BME280;34163;49.314;6.752;2024-03-23T07:04:18;99225.31;;;8.66;100.00
48352;BME280;34163;49.314;6.752;2024-03-23T07:06:44;99226.03;;;8.69;100.00
48352;BME280;34163;49.314;6.752;2024-03-23T07:09:09;99237.47;;;8.70;100.00
48352;BME280;34163;49.314;6.752;2024-03-23T07:11:35;99241.88;;;8.69;100.00
48352;BME280;34163;49.314;6.752;2024-03-23T07:14:00;99241.16;;;8.66;100.00
48352;BME280;34163;49.314;6.752;2024-03-23T07:16:28;99244.47;;;8.71;100.00
48352;BME280;34163;49.314;6.752;2024-03-23T07:18:55;99244.47;;;8.71;100.00
48352;BME280;34163;49.314;6.752;2024-03-23T07:21:21;99248.63;;;8.77;100.00
48352;BME280;34163;49.314;6.752;2024-03-23T07:23:49;99247.34;;;8.85;100.00
48352;BME280;34163;49.314;6.752;2024-03-23T07:26:14;99253.06;;;8.76;100.00
48352;BME280;34163;49.314;6.752;2024-03-23T07:28:40;99265.25;;;8.79;100.00
48352;BME280;34163;49.314;6.752;2024-03-23T07:31:10;99255.44;;;8.82;100.00
48352;BME280;34163;49.314;6.752;2024-03-23T07:33:36;99265.31;;;8.77;100.00
48352;BME280;34163;49.314;6.752;2024-03-23T07:36:01;99278.34;;;8.82;100.00
48352;BME280;34163;49.314;6.752;2024-03-23T07:38:30;99299.34;;;8.85;100.00
48352;BME280;34163;49.314;6.752;2024-03-23T07:41:29;99315.00;;;8.89;100.00
48352;BME280;34163;49.314;6.752;2024-03-23T07:43:47;99326.41;;;8.90;100.00
48352;BME280;34163;49.314;6.752;2024-03-23T07:46:13;99314.09;;;8.90;100.00
48352;BME280;34163;49.314;6.752;2024-03-23T07:48:38;99292.94;;;8.90;100.00
48352;BME280;34163;49.314;6.752;2024-03-23T07:51:06;99291.22;;;8.89;100.00
48352;BME280;34163;49.314;6.752;2024-03-23T07:53:31;99275.56;;;8.85;100.00
48352;BME280;34163;49.314;6.752;2024-03-23T07:56:01;99277.09;;;8.90;100.00
48352;BME280;34163;49.314;6.752;2024-03-23T07:58:26;99283.16;;;8.93;100.00
48352;BME280;34163;49.314;6.752;2024-03-23T08:00:52;99287.53;;;8.94;100.00
48352;BME280;34163;49.314;6.752;2024-03-23T08:03:18;99291.72;;;8.98;100.00
48352;BME280;34163;49.314;6.752;2024-03-23T08:05:43;99306.94;;;8.93;100.00
48352;BME280;34163;49.314;6.752;2024-03-23T08:08:08;99304.03;;;8.99;100.00
48352;BME280;34163;49.314;6.752;2024-03-23T08:10:34;99310.22;;;8.98;100.00
48352;BME280;34163;49.314;6.752;2024-03-23T08:12:59;99311.00;;;9.00;100.00
48352;BME280;34163;49.314;6.752;2024-03-23T08:15:25;99312.75;;;9.01;100.00
48352;BME280;34163;49.314;6.752;2024-03-23T08:17:50;99305.59;;;9.03;100.00
48352;BME280;34163;49.314;6.752;2024-03-23T08:20:15;99311.00;;;9.00;100.00
48352;BME280;34163;49.314;6.752;2024-03-23T08:38:45;99311.56;;;9.08;100.00
48352;BME280;34163;49.314;6.752;2024-03-23T08:41:11;99315.75;;;9.12;100.00
48352;BME280;34163;49.314;6.752;2024-03-23T08:43:37;99305.19;;;9.12;100.00
48352;BME280;34163;49.314;6.752;2024-03-23T08:46:03;99303.31;;;9.14;100.00
48352;BME280;34163;49.314;6.752;2024-03-23T08:48:29;99315.50;;;9.18;100.00
48352;BME280;34163;49.314;6.752;2024-03-23T08:51:03;99317.88;;;9.24;100.00
48352;BME280;34163;49.314;6.752;2024-03-23T08:53:29;99319.59;;;9.25;100.00
48352;BME280;34163;49.314;6.752;2024-03-23T08:55:55;99317.16;;;9.21;100.00
48352;BME280;34163;49.314;6.752;2024-03-23T08:58:20;99313.56;;;9.22;100.00
48352;BME280;34163;49.314;6.752;2024-03-23T09:00:46;99320.38;;;9.27;100.00
48352;BME280;34163;49.314;6.752;2024-03-23T09:03:12;99335.31;;;9.29;100.00
48352;BME280;34163;49.314;6.752;2024-03-23T09:05:40;99329.88;;;9.32;100.00
48352;BME280;34163;49.314;6.752;2024-03-23T09:08:05;99337.81;;;9.32;100.00
48352;BME280;34163;49.314;6.752;2024-03-23T09:10:31;99333.25;;;9.35;100.00
48352;BME280;34163;49.314;6.752;2024-03-23T09:12:57;99329.38;;;9.42;100.00
48352;BME280;34163;49.314;6.752;2024-03-23T09:15:22;99326.03;;;9.39;100.00
48352;BME280;34163;49.314;6.752;2024-03-23T09:17:47;99339.31;;;9.37;100.00
48352;BME280;34163;49.314;6.752;2024-03-23T09:20:12;99333.91;;;9.40;100.00
48352;BME280;34163;49.314;6.752;2024-03-23T09:22:38;99341.50;;;9.48;100.00
48352;BME280;34163;49.314;6.752;2024-03-23T09:25:03;99340.53;;;9.49;100.00
48352;BME280;34163;49.314;6.752;2024-03-23T09:27:30;99337.47;;;9.58;100.00
48352;BME280;34163;49.314;6.752;2024-03-23T09:29:55;99329.69;;;9.55;100.00
48352;BME280;34163;49.314;6.752;2024-03-23T09:32:20;99319.25;;;9.52;100.00
48352;BME280;34163;49.314;6.752;2024-03-23T09:34:46;99310.19;;;9.58;100.00
48352;BME280;34163;49.314;6.752;2024-03-23T09:37:11;99306.69;;;9.57;100.00
48352;BME280;34163;49.314;6.752;2024-03-23T09:39:36;99301.34;;;9.59;100.00
48352;BME280;34163;49.314;6.752;2024-03-23T09:44:51;99293.97;;;9.66;100.00
48352;BME280;34163;49.314;6.752;2024-03-23T09:47:16;99299.41;;;9.62;100.00
48352;BME280;34163;49.314;6.752;2024-03-23T09:49:42;99297.59;;;9.63;100.00
48352;BME280;34163;49.314;6.752;2024-03-23T09:52:07;99301.75;;;9.69;100.00
48352;BME280;34163;49.314;6.752;2024-03-23T09:54:32;99292.72;;;9.73;100.00
48352;BME280;34163;49.314;6.752;2024-03-23T09:56:58;99295.59;;;9.68;100.00
48352;BME280;34163;49.314;6.752;2024-03-23T09:59:25;99292.88;;;9.70;100.00
48352;BME280;34163;49.314;6.752;2024-03-23T10:01:52;99292.09;;;9.68;100.00
48352;BME280;34163;49.314;6.752;2024-03-23T10:07:14;99302.25;;;9.77;100.00
48352;BME280;34163;49.314;6.752;2024-03-23T10:09:40;99319.69;;;9.81;100.00
48352;BME280;34163;49.314;6.752;2024-03-23T10:12:12;99315.41;;;9.78;100.00
48352;BME280;34163;49.314;6.752;2024-03-23T10:14:40;99318.13;;;9.77;100.00
48352;BME280;34163;49.314;6.752;2024-03-23T10:19:44;99304.19;;;9.73;100.00
48352;BME280;34163;49.314;6.752;2024-03-23T10:22:12;99306.59;;;9.78;100.00
48352;BME280;34163;49.314;6.752;2024-03-23T10:24:38;99306.75;;;9.75;100.00
48352;BME280;34163;49.314;6.752;2024-03-23T10:27:03;99302.31;;;9.75;100.00
48352;BME280;34163;49.314;6.752;2024-03-23T10:29:28;99297.09;;;9.74;100.00
48352;BME280;34163;49.314;6.752;2024-03-23T10:31:54;99286.44;;;9.75;100.00
48352;BME280;34163;49.314;6.752;2024-03-23T10:34:26;99287.16;;;9.79;100.00
48352;BME280;34163;49.314;6.752;2024-03-23T10:36:54;99277.56;;;9.76;100.00
48352;BME280;34163;49.314;6.752;2024-03-23T10:39:22;99289.94;;;9.76;100.00
48352;BME280;34163;49.314;6.752;2024-03-23T10:41:49;99285.44;;;9.78;100.00
48352;BME280;34163;49.314;6.752;2024-03-23T10:44:16;99269.53;;;9.78;100.00
48352;BME280;34163;49.314;6.752;2024-03-23T10:46:42;99263.47;;;9.76;100.00
48352;BME280;34163;49.314;6.752;2024-03-23T10:49:08;99266.06;;;9.77;100.00
48352;BME280;34163;49.314;6.752;2024-03-23T10:51:33;99281.09;;;9.77;100.00
48352;BME280;34163;49.314;6.752;2024-03-23T10:53:59;99287.22;;;9.77;100.00
48352;BME280;34163;49.314;6.752;2024-03-23T10:56:25;99320.63;;;9.80;100.00
48352;BME280;34163;49.314;6.752;2024-03-23T10:58:51;99354.75;;;9.86;100.00
48352;BME280;34163;49.314;6.752;2024-03-23T11:01:16;99366.81;;;9.92;100.00
48352;BME280;34163;49.314;6.752;2024-03-23T11:03:46;99360.81;;;9.88;100.00
48352;BME280;34163;49.314;6.752;2024-03-23T11:06:34;99378.69;;;9.83;100.00
48352;BME280;34163;49.314;6.752;2024-03-23T11:08:56;99375.16;;;9.82;100.00
48352;BME280;34163;49.314;6.752;2024-03-23T11:11:24;99375.09;;;9.84;100.00
48352;BME280;34163;49.314;6.752;2024-03-23T11:13:50;99393.34;;;9.90;100.00
48352;BME280;34163;49.314;6.752;2024-03-23T11:16:16;99397.72;;;9.91;100.00
48352;BME280;34163;49.314;6.752;2024-03-23T11:18:42;99399.41;;;9.92;100.00
48352;BME280;34163;49.314;6.752;2024-03-23T11:21:10;99388.63;;;9.97;100.00
48352;BME280;34163;49.314;6.752;2024-03-23T11:24:01;99358.50;;;9.99;100.00
48352;BME280;34163;49.314;6.752;2024-03-23T11:26:38;99364.09;;;9.93;100.00
48352;BME280;34163;49.314;6.752;2024-03-23T11:29:10;99348.84;;;9.98;100.00
48352;BME280;34163;49.314;6.752;2024-03-23T11:31:36;99349.88;;;9.96;100.00
48352;BME280;34163;49.314;6.752;2024-03-23T11:34:02;99341.66;;;10.02;100.00
48352;BME280;34163;49.314;6.752;2024-03-23T11:36:28;99345.91;;;10.05;100.00
48352;BME280;34163;49.314;6.752;2024-03-23T11:38:53;99347.94;;;9.99;100.00
48352;BME280;34163;49.314;6.752;2024-03-23T11:41:18;99339.13;;;9.99;100.00
48352;BME280;34163;49.314;6.752;2024-03-23T11:43:44;99335.63;;;9.98;100.00
48352;BME280;34163;49.314;6.752;2024-03-23T11:46:09;99338.94;;;10.04;100.00
48352;BME280;34163;49.314;6.752;2024-03-23T11:48:34;99326.47;;;10.06;100.00
48352;BME280;34163;49.314;6.752;2024-03-23T11:50:59;99319.31;;;10.08;100.00
48352;BME280;34163;49.314;6.752;2024-03-23T11:53:27;99326.47;;;10.06;100.00
48352;BME280;34163;49.314;6.752;2024-03-23T11:58:56;99346.47;;;10.11;100.00
48352;BME280;34163;49.314;6.752;2024-03-23T12:01:21;99341.50;;;10.23;100.00
48352;BME280;34163;49.314;6.752;2024-03-23T12:03:47;99338.16;;;10.19;100.00
48352;BME280;34163;49.314;6.752;2024-03-23T12:06:12;99332.09;;;10.17;100.00
48352;BME280;34163;49.314;6.752;2024-03-23T12:08:38;99333.28;;;10.29;100.00
48352;BME280;34163;49.314;6.752;2024-03-23T12:11:07;99336.94;;;10.26;100.00
48352;BME280;34163;49.314;6.752;2024-03-23T12:13:34;99327.13;;;10.28;100.00
48352;BME280;34163;49.314;6.752;2024-03-23T12:16:13;99329.00;;;10.26;100.00
48352;BME280;34163;49.314;6.752;2024-03-23T12:18:39;99316.69;;;10.25;100.00
48352;BME280;34163;49.314;6.752;2024-03-23T12:21:05;99294.59;;;10.26;100.00
48352;BME280;34163;49.314;6.752;2024-03-23T12:23:31;99301.81;;;10.23;100.00
48352;BME280;34163;49.314;6.752;2024-03-23T12:25:57;99291.94;;;10.26;100.00
48352;BME280;34163;49.314;6.752;2024-03-23T12:28:31;99282.28;;;10.25;100.00
48352;BME280;34163;49.314;6.752;2024-03-23T12:31:00;99284.78;;;10.28;100.00
48352;BME280;34163;49.314;6.752;2024-03-23T12:33:25;99285.63;;;10.29;100.00
48352;BME280;34163;49.314;6.752;2024-03-23T12:35:51;99299.53;;;10.34;100.00
48352;BME280;34163;49.314;6.752;2024-03-23T12:38:17;99312.63;;;10.37;100.00
48352;BME280;34163;49.314;6.752;2024-03-23T12:40:46;99324.34;;;10.31;100.00
48352;BME280;34163;49.314;6.752;2024-03-23T12:43:22;99312.09;;;10.29;100.00
48352;BME280;34163;49.314;6.752;2024-03-23T12:45:48;99308.41;;;10.33;100.00
48352;BME280;34163;49.314;6.752;2024-03-23T12:48:16;99300.59;;;10.30;100.00
48352;BME280;34163;49.314;6.752;2024-03-23T12:50:41;99285.75;;;10.26;100.00
48352;BME280;34163;49.314;6.752;2024-03-23T12:53:06;99288.19;;;10.30;100.00
48352;BME280;34163;49.314;6.752;2024-03-23T12:55:32;99279.63;;;10.25;100.00
48352;BME280;34163;49.314;6.752;2024-03-23T12:57:57;99271.75;;;10.24;100.00
48352;BME280;34163;49.314;6.752;2024-03-23T13:00:22;99258.44;;;10.25;100.00
48352;BME280;34163;49.314;6.752;2024-03-23T13:02:53;99266.22;;;10.28;100.00
48352;BME280;34163;49.314;6.752;2024-03-23T13:05:18;99264.28;;;10.32;100.00
48352;BME280;34163;49.314;6.752;2024-03-23T13:07:43;99252.84;;;10.31;100.00
48352;BME280;34163;49.314;6.752;2024-03-23T13:10:12;99244.69;;;10.36;100.00
48352;BME280;34163;49.314;6.752;2024-03-23T13:12:38;99235.91;;;10.35;100.00
48352;BME280;34163;49.314;6.752;2024-03-23T13:15:10;99235.09;;;10.33;100.00
48352;BME280;34163;49.314;6.752;2024-03-23T13:17:36;99235.91;;;10.35;100.00
48352;BME280;34163;49.314;6.752;2024-03-23T13:20:01;99232.91;;;10.42;100.00
48352;BME280;34163;49.314;6.752;2024-03-23T13:22:28;99220.63;;;10.41;100.00
48352;BME280;34163;49.314;6.752;2024-03-23T13:24:53;99222.59;;;10.37;100.00
48352;BME280;34163;49.314;6.752;2024-03-23T13:27:19;99213.78;;;10.36;100.00
48352;BME280;34163;49.314;6.752;2024-03-23T13:29:44;99193.28;;;10.40;100.00
48352;BME280;34163;49.314;6.752;2024-03-23T13:32:11;99197.56;;;10.43;100.00
48352;BME280;34163;49.314;6.752;2024-03-23T13:34:39;99193.34;;;10.39;100.00
48352;BME280;34163;49.314;6.752;2024-03-23T13:37:05;99187.97;;;10.40;100.00
48352;BME280;34163;49.314;6.752;2024-03-23T13:39:32;99187.97;;;10.40;100.00
48352;BME280;34163;49.314;6.752;2024-03-23T13:41:59;99188.78;;;10.42;100.00
48352;BME280;34163;49.314;6.752;2024-03-23T13:44:24;99187.13;;;10.40;100.00
48352;BME280;34163;49.314;6.752;2024-03-23T13:46:52;99204.75;;;10.41;100.00
48352;BME280;34163;49.314;6.752;2024-03-23T13:49:27;99220.63;;;10.41;100.00
48352;BME280;34163;49.314;6.752;2024-03-23T13:54:41;99313.25;;;10.42;100.00
48352;BME280;34163;49.314;6.752;2024-03-23T13:57:11;99315.09;;;10.40;100.00
48352;BME280;34163;49.314;6.752;2024-03-23T13:59:36;99309.09;;;10.36;100.00
48352;BME280;34163;49.314;6.752;2024-03-23T14:02:02;99285.28;;;10.36;100.00
48352;BME280;34163;49.314;6.752;2024-03-23T14:04:27;99230.69;;;10.34;100.00
48352;BME280;34163;49.314;6.752;2024-03-23T14:06:52;99230.53;;;10.37;100.00
48352;BME280;34163;49.314;6.752;2024-03-23T14:09:18;99238.06;;;10.45;100.00
48352;BME280;34163;49.314;6.752;2024-03-23T14:11:48;99238.88;;;10.47;100.00
48352;BME280;34163;49.314;6.752;2024-03-23T14:14:14;99233.72;;;10.44;100.00
48352;BME280;34163;49.314;6.752;2024-03-23T14:16:43;99233.66;;;10.45;100.00
48352;BME280;34163;49.314;6.752;2024-03-23T14:19:08;99233.72;;;10.44;100.00
48352;BME280;34163;49.314;6.752;2024-03-23T14:21:33;99226.78;;;10.41;100.00
48352;BME280;34163;49.314;6.752;2024-03-23T14:24:01;99215.19;;;10.44;100.00
48352;BME280;34163;49.314;6.752;2024-03-23T14:26:27;99217.69;;;10.47;100.00
48352;BME280;34163;49.314;6.752;2024-03-23T14:28:53;99206.19;;;10.46;100.00
48352;BME280;34163;49.314;6.752;2024-03-23T14:31:18;99202.56;;;10.49;100.00
48352;BME280;34163;49.314;6.752;2024-03-23T14:33:43;99210.41;;;10.50;100.00
48352;BME280;34163;49.314;6.752;2024-03-23T14:36:15;99198.81;;;10.53;100.00
48352;BME280;34163;49.314;6.752;2024-03-23T14:38:40;99196.34;;;10.50;100.00
48352;BME280;34163;49.314;6.752;2024-03-23T14:41:05;99189.91;;;10.54;100.00
48352;BME280;34163;49.314;6.752;2024-03-23T14:43:31;99188.31;;;10.51;100.00
48352;BME280;34163;49.314;6.752;2024-03-23T14:46:09;99185.72;;;10.50;100.00
48352;BME280;34163;49.314;6.752;2024-03-23T14:48:34;99185.56;;;10.53;100.00
48352;BME280;34163;49.314;6.752;2024-03-23T14:51:00;99189.16;;;10.52;100.00
48352;BME280;34163;49.314;6.752;2024-03-23T14:53:26;99181.13;;;10.53;100.00
48352;BME280;34163;49.314;6.752;2024-03-23T14:55:54;99203.78;;;10.59;100.00
48352;BME280;34163;49.314;6.752;2024-03-23T14:58:20;99222.47;;;10.56;100.00
48352;BME280;34163;49.314;6.752;2024-03-23T15:00:45;99279.75;;;10.59;100.00
48352;BME280;34163;49.314;6.752;2024-03-23T15:03:10;99318.66;;;10.58;100.00
48352;BME280;34163;49.314;6.752;2024-03-23T15:05:35;99329.31;;;10.57;100.00
48352;BME280;34163;49.314;6.752;2024-03-23T15:08:02;99328.28;;;10.59;100.00
48352;BME280;34163;49.314;6.752;2024-03-23T15:10:27;99318.66;;;10.58;100.00
48352;BME280;34163;49.314;6.752;2024-03-23T15:12:53;99312.38;;;10.59;100.00
48352;BME280;34163;49.314;6.752;2024-03-23T15:15:18;99319.34;;;10.62;100.00
48352;BME280;34163;49.314;6.752;2024-03-23T15:17:43;99319.25;;;10.63;100.00
48352;BME280;34163;49.314;6.752;2024-03-23T15:20:10;99305.72;;;10.69;100.00
48352;BME280;34163;49.314;6.752;2024-03-23T15:22:38;99292.53;;;10.68;100.00
48352;BME280;34163;49.314;6.752;2024-03-23T15:25:04;99283.97;;;10.63;100.00
48352;BME280;34163;49.314;6.752;2024-03-23T15:27:29;99293.53;;;10.65;100.00
48352;BME280;34163;49.314;6.752;2024-03-23T15:29:55;99295.97;;;10.70;100.00
48352;BME280;34163;49.314;6.752;2024-03-23T15:32:21;99286.94;;;10.74;100.00
48352;BME280;34163;49.314;6.752;2024-03-23T15:34:47;99283.41;;;10.73;100.00
48352;BME280;34163;49.314;6.752;2024-03-23T15:37:12;99268.47;;;10.72;100.00
48352;BME280;34163;49.314;6.752;2024-03-23T15:39:37;99261.59;;;10.68;100.00
48352;BME280;34163;49.314;6.752;2024-03-23T15:42:02;99261.59;;;10.68;100.00
48352;BME280;34163;49.314;6.752;2024-03-23T15:44:29;99259.16;;;10.64;100.00
48352;BME280;34163;49.314;6.752;2024-03-23T15:46:54;99249.47;;;10.64;100.00
48352;BME280;34163;49.314;6.752;2024-03-23T15:49:20;99249.47;;;10.64;100.00
48352;BME280;34163;49.314;6.752;2024-03-23T15:51:45;99240.63;;;10.64;100.00
48352;BME280;34163;49.314;6.752;2024-03-23T15:54:10;99249.38;;;10.66;100.00
48352;BME280;34163;49.314;6.752;2024-03-23T15:56:57;99237.13;;;10.63;100.00
48352;BME280;34163;49.314;6.752;2024-03-23T15:59:21;99243.88;;;10.69;100.00
48352;BME280;34163;49.314;6.752;2024-03-23T16:01:47;99232.53;;;10.67;100.00
48352;BME280;34163;49.314;6.752;2024-03-23T16:04:12;99235.84;;;10.70;100.00
48352;BME280;34163;49.314;6.752;2024-03-23T16:06:40;99237.66;;;10.70;100.00
48352;BME280;34163;49.314;6.752;2024-03-23T16:09:06;99237.44;;;10.75;100.00
48352;BME280;34163;49.314;6.752;2024-03-23T16:11:33;99231.88;;;10.79;100.00
48352;BME280;34163;49.314;6.752;2024-03-23T16:13:58;99235.47;;;10.78;100.00
48352;BME280;34163;49.314;6.752;2024-03-23T16:16:23;99237.44;;;10.75;100.00
48352;BME280;34163;49.314;6.752;2024-03-23T16:18:49;99229.31;;;10.78;100.00
48352;BME280;34163;49.314;6.752;2024-03-23T16:21:14;99228.41;;;10.79;100.00
48352;BME280;34163;49.314;6.752;2024-03-23T16:23:39;99215.31;;;10.76;100.00
48352;BME280;34163;49.314;6.752;2024-03-23T16:26:06;99198.44;;;10.77;100.00
48352;BME280;34163;49.314;6.752;2024-03-23T16:28:37;99190.50;;;10.77;100.00
48352;BME280;34163;49.314;6.752;2024-03-23T16:33:29;99169.28;;;10.77;100.00
48352;BME280;34163;49.314;6.752;2024-03-23T16:36:01;99137.56;;;10.75;100.00
48352;BME280;34163;49.314;6.752;2024-03-23T16:38:27;99135.81;;;10.76;100.00
48352;BME280;34163;49.314;6.752;2024-03-23T16:41:00;99124.25;;;10.77;100.00
48352;BME280;34163;49.314;6.752;2024-03-23T16:43:25;99132.03;;;10.80;100.00
48352;BME280;34163;49.314;6.752;2024-03-23T16:45:54;99124.25;;;10.77;100.00
48352;BME280;34163;49.314;6.752;2024-03-23T16:48:21;99128.63;;;10.78;100.00
48352;BME280;34163;49.314;6.752;2024-03-23T16:50:46;99137.34;;;10.80;100.00
48352;BME280;34163;49.314;6.752;2024-03-23T16:53:12;99147.00;;;10.81;100.00
48352;BME280;34163;49.314;6.752;2024-03-23T16:55:37;99154.13;;;10.80;100.00
48352;BME280;34163;49.314;6.752;2024-03-23T16:58:03;99156.59;;;10.83;100.00
48352;BME280;34163;49.314;6.752;2024-03-23T17:00:30;99146.00;;;10.83;100.00
48352;BME280;34163;49.314;6.752;2024-03-23T17:03:04;99137.16;;;10.83;100.00
48352;BME280;34163;49.314;6.752;2024-03-23T17:05:35;99139.91;;;10.81;100.00
48352;BME280;34163;49.314;6.752;2024-03-23T17:08:01;99140.59;;;10.85;100.00
48352;BME280;34163;49.314;6.752;2024-03-23T17:10:27;99152.06;;;10.85;100.00
48352;BME280;34163;49.314;6.752;2024-03-23T17:12:53;99155.63;;;10.84;100.00
48352;BME280;34163;49.314;6.752;2024-03-23T17:16:03;99153.00;;;10.84;100.00
48352;BME280;34163;49.314;6.752;2024-03-23T17:18:07;99157.38;;;10.85;100.00
48352;BME280;34163;49.314;6.752;2024-03-23T17:20:32;99162.66;;;10.85;100.00
48352;BME280;34163;49.314;6.752;2024-03-23T17:22:57;99154.78;;;10.84;100.00
48352;BME280;34163;49.314;6.752;2024-03-23T17:25:23;99167.09;;;10.85;100.00
48352;BME280;34163;49.314;6.752;2024-03-23T17:27:48;99166.31;;;10.83;100.00
48352;BME280;34163;49.314;6.752;2024-03-23T17:30:13;99170.63;;;10.85;100.00
48352;BME280;34163;49.314;6.752;2024-03-23T17:32:42;99177.69;;;10.85;100.00
48352;BME280;34163;49.314;6.752;2024-03-23T17:35:08;99179.41;;;10.86;100.00
48352;BME280;34163;49.314;6.752;2024-03-23T17:37:34;99172.38;;;10.85;100.00
48352;BME280;34163;49.314;6.752;2024-03-23T17:39:59;99167.09;;;10.85;100.00
48352;BME280;34163;49.314;6.752;2024-03-23T17:42:25;99156.50;;;10.85;100.00
48352;BME280;34163;49.314;6.752;2024-03-23T17:44:52;99156.50;;;10.85;100.00
48352;BME280;34163;49.314;6.752;2024-03-23T17:47:20;99162.66;;;10.85;100.00
48352;BME280;34163;49.314;6.752;2024-03-23T17:49:45;99162.59;;;10.87;100.00
48352;BME280;34163;49.314;6.752;2024-03-23T17:52:10;99146.75;;;10.85;100.00
48352;BME280;34163;49.314;6.752;2024-03-23T17:55:02;99158.97;;;10.88;100.00
48352;BME280;34163;49.314;6.752;2024-03-23T17:57:30;99158.22;;;10.86;100.00
48352;BME280;34163;49.314;6.752;2024-03-23T17:59:55;99159.94;;;10.87;100.00
48352;BME280;34163;49.314;6.752;2024-03-23T18:02:21;99158.13;;;10.87;100.00
48352;BME280;34163;49.314;6.752;2024-03-23T18:04:47;99159.94;;;10.87;100.00
48352;BME280;34163;49.314;6.752;2024-03-23T18:07:15;99164.34;;;10.86;100.00
48352;BME280;34163;49.314;6.752;2024-03-23T18:09:40;99168.66;;;10.89;100.00
48352;BME280;34163;49.314;6.752;2024-03-23T18:12:08;99176.69;;;10.87;100.00
48352;BME280;34163;49.314;6.752;2024-03-23T18:14:34;99176.69;;;10.87;100.00
48352;BME280;34163;49.314;6.752;2024-03-23T18:16:59;99165.22;;;10.87;100.00
48352;BME280;34163;49.314;6.752;2024-03-23T18:19:24;99159.94;;;10.87;100.00
48352;BME280;34163;49.314;6.752;2024-03-23T18:21:49;99156.31;;;10.88;100.00
48352;BME280;34163;49.314;6.752;2024-03-23T18:24:15;99153.75;;;10.86;100.00
48352;BME280;34163;49.314;6.752;2024-03-23T18:26:40;99151.19;;;10.85;100.00
48352;BME280;34163;49.314;6.752;2024-03-23T18:29:06;99152.91;;;10.86;100.00
48352;BME280;34163;49.314;6.752;2024-03-23T18:31:31;99158.22;;;10.86;100.00
48352;BME280;34163;49.314;6.752;2024-03-23T18:33:57;99151.03;;;10.88;100.00
48352;BME280;34163;49.314;6.752;2024-03-23T18:36:22;99148.44;;;10.86;100.00
48352;BME280;34163;49.314;6.752;2024-03-23T18:38:55;99145.72;;;10.88;100.00
48352;BME280;34163;49.314;6.752;2024-03-23T18:41:21;99142.22;;;10.87;100.00
48352;BME280;34163;49.314;6.752;2024-03-23T18:43:47;99145.81;;;10.86;100.00
48352;BME280;34163;49.314;6.752;2024-03-23T18:46:15;99137.84;;;10.86;100.00
48352;BME280;34163;49.314;6.752;2024-03-23T18:48:41;99142.31;;;10.86;100.00
48352;BME280;34163;49.314;6.752;2024-03-23T18:51:06;99131.69;;;10.86;100.00
48352;BME280;34163;49.314;6.752;2024-03-23T18:53:32;99137.84;;;10.86;100.00
48352;BME280;34163;49.314;6.752;2024-03-23T18:55:57;99140.41;;;10.88;100.00
48352;BME280;34163;49.314;6.752;2024-03-23T18:58:22;99129.81;;;10.88;100.00
48352;BME280;34163;49.314;6.752;2024-03-23T19:00:48;99134.19;;;10.89;100.00
48352;BME280;34163;49.314;6.752;2024-03-23T19:03:19;99143.06;;;10.88;100.00
48352;BME280;34163;49.314;6.752;2024-03-23T19:05:51;99138.66;;;10.88;100.00
48352;BME280;34163;49.314;6.752;2024-03-23T19:08:16;99138.56;;;10.90;100.00
48352;BME280;34163;49.314;6.752;2024-03-23T19:10:42;99145.63;;;10.89;100.00
48352;BME280;34163;49.314;6.752;2024-03-23T19:13:07;99140.41;;;10.88;100.00
48352;BME280;34163;49.314;6.752;2024-03-23T19:15:33;99142.91;;;10.91;100.00
48352;BME280;34163;49.314;6.752;2024-03-23T19:17:58;99142.91;;;10.91;100.00
48352;BME280;34163;49.314;6.752;2024-03-23T19:20:24;99151.81;;;10.90;100.00
48352;BME280;34163;49.314;6.752;2024-03-23T19:22:49;99151.91;;;10.88;100.00
48352;BME280;34163;49.314;6.752;2024-03-23T19:25:14;99141.28;;;10.88;100.00
48352;BME280;34163;49.314;6.752;2024-03-23T19:27:39;99132.31;;;10.91;100.00
48352;BME280;34163;49.314;6.752;2024-03-23T19:30:06;99134.03;;;10.92;100.00